Time;durP1;ratioP1;P1;durP2;ratioP2;P2;SDS_P1;SDS_P2;PMS_P1;PMS_P2;Temp;Humidity;BMP_temperature;BMP_pressure;BME280_temperature;BME280_humidity;BME280_pressure;Samples;Min_cycle;Max_cycle;Signal;HPM_P1;HPM_P2
2022/09/13 02:48:17;;;;;;;4.57;0.88;;;13.80;99.00;;;;;;5061791;23;88145;-71
2022/09/13 02:51:07;;;;;;;0.70;0.10;;;13.90;98.00;;;;;;4907919;28;87247;-72
2022/09/13 02:53:47;;;;;;;2.95;0.30;;;13.90;98.20;;;;;;4916377;28;86510;-74
2022/09/13 02:56:33;;;;;;;3.25;0.30;;;13.90;96.10;;;;;;4908716;28;87085;-75
2022/09/13 02:59:10;;;;;;;2.60;0.20;;;14.10;95.00;;;;;;4917634;28;86001;-72
2022/09/13 03:01:38;;;;;;;2.45;0.38;;;14.00;95.20;;;;;;4918991;28;88064;-71
2022/09/13 03:04:04;;;;;;;1.60;0.32;;;13.90;95.90;;;;;;4917950;28;86311;-71
2022/09/13 03:06:30;;;;;;;0.95;0.32;;;13.90;96.60;;;;;;4908607;28;87318;-71
2022/09/13 03:09:00;;;;;;;0.70;0.20;;;13.90;97.20;;;;;;4900046;28;86918;-70
2022/09/13 03:11:49;;;;;;;2.55;0.20;;;13.80;97.70;;;;;;4899498;28;88276;-71
2022/09/13 03:14:45;;;;;;;4.72;0.55;;;13.70;98.90;;;;;;4899933;28;86999;-70
2022/09/13 03:17:21;;;;;;;2.25;0.40;;;13.70;99.30;;;;;;4913123;28;86747;-70
2022/09/13 03:20:34;;;;;;;1.02;0.30;;;13.90;98.30;;;;;;4913381;28;87051;-73
2022/09/13 03:23:12;;;;;;;1.85;0.40;;;13.70;99.80;;;;;;4896985;28;87264;-73
2022/09/13 03:25:53;;;;;;;1.42;0.28;;;13.60;99.90;;;;;;4905721;28;87437;-71
2022/09/13 03:28:49;;;;;;;1.35;0.38;;;13.60;99.40;;;;;;4913970;28;87451;-71
2022/09/13 03:31:44;;;;;;;1.30;0.30;;;13.60;99.90;;;;;;4904185;28;86707;-72
2022/09/13 03:34:26;;;;;;;2.53;0.50;;;13.50;99.90;;;;;;4914510;28;88335;-70
2022/09/13 03:37:02;;;;;;;2.78;0.35;;;13.50;99.90;;;;;;4920111;28;86935;-70
2022/09/13 03:39:51;;;;;;;3.22;0.30;;;13.40;99.90;;;;;;4912060;28;86722;-71
2022/09/13 03:42:33;;;;;;;1.27;0.32;;;13.40;99.90;;;;;;4903817;28;86489;-73
2022/09/13 03:45:02;;;;;;;1.85;0.45;;;13.40;99.90;;;;;;4900094;28;87395;-72
2022/09/13 03:47:31;;;;;;;3.72;0.20;;;13.40;99.90;;;;;;4902484;28;88524;-71
2022/09/13 03:49:58;;;;;;;1.90;0.50;;;13.40;99.90;;;;;;4919376;28;86536;-71
2022/09/13 03:52:25;;;;;;;2.20;0.30;;;13.40;99.90;;;;;;4920028;28;85567;-71
2022/09/13 03:54:53;;;;;;;1.42;0.20;;;13.30;99.90;;;;;;4912352;28;87287;-71
2022/09/13 03:57:22;;;;;;;1.73;0.35;;;13.40;99.90;;;;;;4912931;28;86741;-71
2022/09/13 03:59:48;;;;;;;3.70;0.60;;;13.50;99.90;;;;;;4901806;28;87642;-70
2022/09/13 04:02:16;;;;;;;1.60;0.30;;;13.40;99.90;;;;;;4901318;28;86335;-72
2022/09/13 04:04:43;;;;;;;3.08;0.32;;;13.40;99.90;;;;;;4916455;28;88273;-70
2022/09/13 04:07:11;;;;;;;1.75;0.40;;;13.30;99.90;;;;;;4907546;28;86220;-72
2022/09/13 04:09:38;;;;;;;2.70;0.22;;;13.40;99.90;;;;;;4917876;28;86313;-70
2022/09/13 04:12:04;;;;;;;3.38;0.43;;;13.30;99.90;;;;;;4914473;28;86873;-71
2022/09/13 04:14:29;;;;;;;2.75;0.30;;;13.30;99.90;;;;;;4917976;28;86540;-71
2022/09/13 04:16:56;;;;;;;4.07;0.50;;;13.30;99.90;;;;;;4918233;28;87643;-71
2022/09/13 04:19:23;;;;;;;1.58;0.30;;;13.30;99.90;;;;;;4909492;28;87160;-71
2022/09/13 04:21:49;;;;;;;1.00;0.40;;;13.30;99.90;;;;;;4914152;28;86400;-71
2022/09/13 04:24:17;;;;;;;1.77;0.20;;;13.10;99.90;;;;;;4908131;28;88188;-72
2022/09/13 04:26:43;;;;;;;3.08;0.32;;;13.10;99.90;;;;;;4916863;28;87091;-70
2022/09/13 04:29:10;;;;;;;1.67;0.30;;;13.10;99.90;;;;;;4917342;28;86282;-71
2022/09/13 04:31:36;;;;;;;1.25;0.30;;;13.10;99.90;;;;;;4916388;28;86365;-71
2022/09/13 04:34:03;;;;;;;2.03;0.40;;;13.10;99.90;;;;;;4909367;28;86687;-75
2022/09/13 04:36:28;;;;;;;1.17;0.22;;;13.20;99.90;;;;;;4913999;28;86980;-74
2022/09/13 04:38:54;;;;;;;3.22;0.28;;;13.30;99.90;;;;;;4916415;28;86538;-71
2022/09/13 04:41:20;;;;;;;3.38;0.32;;;13.30;99.90;;;;;;4915367;28;85571;-74
2022/09/13 04:43:49;;;;;;;4.88;0.40;;;13.20;99.90;;;;;;4916499;28;87250;-71
2022/09/13 04:46:15;;;;;;;1.10;0.55;;;13.20;99.90;;;;;;4917792;28;87462;-72
2022/09/13 04:48:41;;;;;;;3.72;0.30;;;13.20;99.90;;;;;;4916517;28;87168;-72
2022/09/13 04:51:07;;;;;;;1.80;0.60;;;13.30;99.90;;;;;;4915801;28;87966;-73
2022/09/13 04:53:33;;;;;;;3.08;0.40;;;13.50;99.20;;;;;;4913465;28;87026;-73
2022/09/13 04:56:03;;;;;;;6.32;0.50;;;13.40;99.10;;;;;;4914000;28;86721;-73
2022/09/13 04:58:30;;;;;;;1.10;0.20;;;13.30;99.90;;;;;;4908402;28;87139;-73
2022/09/13 05:01:03;;;;;;;3.42;0.30;;;13.30;99.90;;;;;;4910938;28;86941;-73
2022/09/13 05:03:30;;;;;;;1.42;0.35;;;13.30;99.90;;;;;;4916787;28;86610;-73
2022/09/13 05:06:04;;;;;;;1.13;0.10;;;13.40;99.90;;;;;;4911349;28;87240;-73
2022/09/13 05:08:30;;;;;;;1.70;0.40;;;13.40;99.90;;;;;;4909772;28;87143;-73
2022/09/13 05:10:57;;;;;;;7.28;0.30;;;13.40;99.90;;;;;;4908886;28;86308;-73
2022/09/13 05:13:23;;;;;;;2.97;0.40;;;13.40;99.90;;;;;;4904852;28;88170;-73
2022/09/13 05:15:48;;;;;;;6.47;0.40;;;13.50;99.90;;;;;;4909107;28;87201;-73
2022/09/13 05:18:15;;;;;;;2.45;0.40;;;13.60;99.90;;;;;;4912666;28;86717;-73
2022/09/13 05:20:40;;;;;;;5.85;0.60;;;13.90;99.90;;;;;;4909430;28;86211;-72
2022/09/13 05:23:06;;;;;;;1.58;0.30;;;14.50;99.90;;;;;;4909828;28;87100;-72
2022/09/13 05:25:32;;;;;;;6.35;0.55;;;15.20;99.90;;;;;;4913305;28;87117;-73
2022/09/13 05:27:57;;;;;;;1.15;0.28;;;15.80;97.90;;;;;;4903377;28;86844;-73
2022/09/13 05:30:23;;;;;;;7.20;0.55;;;15.90;95.70;;;;;;4905754;28;86452;-73
2022/09/13 05:32:49;;;;;;;2.10;0.40;;;15.90;95.30;;;;;;4908154;28;88696;-73
2022/09/13 05:35:14;;;;;;;2.25;0.68;;;15.90;95.20;;;;;;4905187;28;86741;-73
2022/09/13 05:37:40;;;;;;;1.58;0.40;;;16.00;95.00;;;;;;4910995;28;87818;-73
2022/09/13 05:40:06;;;;;;;1.20;0.45;;;16.40;94.90;;;;;;4907422;28;86794;-72
2022/09/13 05:42:32;;;;;;;1.73;0.40;;;17.20;94.00;;;;;;4907485;28;87192;-73
2022/09/13 05:44:58;;;;;;;8.43;0.73;;;18.30;91.90;;;;;;4907405;28;87029;-73
2022/09/13 05:47:23;;;;;;;5.10;0.50;;;19.10;89.00;;;;;;4908934;28;86842;-73
2022/09/13 05:49:49;;;;;;;7.55;0.73;;;20.10;85.90;;;;;;4915794;28;86318;-73
2022/09/13 05:52:14;;;;;;;8.88;0.80;;;20.80;80.80;;;;;;4916416;28;86973;-73
2022/09/13 05:54:40;;;;;;;1.98;0.57;;;21.00;81.20;;;;;;4916500;28;86769;-73
2022/09/13 05:57:06;;;;;;;5.30;1.10;;;22.20;75.30;;;;;;4916447;28;86720;-73
2022/09/13 05:59:31;;;;;;;3.28;1.33;;;23.20;74.20;;;;;;4916419;28;86757;-72
2022/09/13 06:01:57;;;;;;;2.13;1.00;;;23.70;67.80;;;;;;4915557;28;88240;-74
2022/09/13 06:04:23;;;;;;;6.07;1.10;;;24.50;69.40;;;;;;4912270;28;87255;-73
2022/09/13 06:06:49;;;;;;;2.22;1.20;;;25.00;64.70;;;;;;4912374;28;87419;-75
2022/09/13 06:09:14;;;;;;;2.42;1.20;;;25.90;62.10;;;;;;4915420;28;87441;-72
2022/09/13 06:11:40;;;;;;;4.53;1.23;;;26.40;58.90;;;;;;4913351;28;87607;-74
2022/09/13 06:14:06;;;;;;;2.80;0.90;;;26.80;58.10;;;;;;4914221;28;86941;-73
2022/09/13 06:16:31;;;;;;;3.78;1.35;;;27.30;55.90;;;;;;4912951;28;87208;-73
2022/09/13 06:18:57;;;;;;;2.45;1.00;;;28.00;54.70;;;;;;4912984;28;86322;-73
2022/09/13 06:21:23;;;;;;;3.83;1.33;;;28.10;52.10;;;;;;4905908;28;87074;-73
2022/09/13 06:23:51;;;;;;;5.65;1.25;;;28.10;52.50;;;;;;4910688;28;87178;-73
2022/09/13 06:26:23;;;;;;;3.83;1.50;;;28.50;50.40;;;;;;4912654;28;87089;-73
2022/09/13 06:28:50;;;;;;;4.53;1.52;;;28.90;49.80;;;;;;4915846;28;86482;-73
2022/09/13 06:31:18;;;;;;;2.20;1.48;;;28.40;50.00;;;;;;4913279;28;87185;-73
2022/09/13 06:33:44;;;;;;;4.20;1.30;;;28.80;49.80;;;;;;4916623;28;86897;-74
2022/09/13 06:36:12;;;;;;;3.65;1.08;;;29.60;50.60;;;;;;4912970;28;87812;-73
2022/09/13 06:38:39;;;;;;;3.40;0.60;;;30.60;46.50;;;;;;4913639;28;86889;-72
2022/09/13 06:41:13;;;;;;;3.45;1.55;;;31.20;44.60;;;;;;4908842;28;87126;-72
2022/09/13 06:43:40;;;;;;;3.53;1.15;;;31.30;47.20;;;;;;4913084;28;87268;-70
2022/09/13 06:46:09;;;;;;;3.28;1.60;;;32.00;45.70;;;;;;4917884;28;86667;-71
2022/09/13 06:48:37;;;;;;;5.43;1.23;;;32.40;44.80;;;;;;4910857;28;86599;-71
2022/09/13 06:51:04;;;;;;;2.83;1.90;;;32.40;45.00;;;;;;4917828;28;88684;-71
2022/09/13 06:53:32;;;;;;;3.55;0.90;;;32.80;44.70;;;;;;4916093;28;88023;-70
2022/09/13 06:56:04;;;;;;;4.75;2.10;;;34.10;44.40;;;;;;4909580;28;86293;-70
2022/09/13 06:58:31;;;;;;;3.72;1.83;;;35.40;41.90;;;;;;4913903;28;86402;-71
2022/09/13 07:01:10;;;;;;;1.77;0.75;;;34.80;41.00;;;;;;4909342;28;88874;-71
2022/09/13 07:03:44;;;;;;;5.63;2.50;;;35.00;41.00;;;;;;4918332;28;87417;-71
2022/09/13 07:06:13;;;;;;;4.55;2.17;;;35.40;41.90;;;;;;4916386;28;86311;-71
2022/09/13 07:08:40;;;;;;;2.70;1.85;;;36.10;40.90;;;;;;4905697;28;86813;-71
2022/09/13 07:11:06;;;;;;;2.95;1.90;;;37.10;40.20;;;;;;4918737;28;87204;-71
2022/09/13 07:13:32;;;;;;;3.55;2.58;;;38.30;39.00;;;;;;4911826;28;86802;-71
2022/09/13 07:16:01;;;;;;;5.35;3.05;;;38.40;39.40;;;;;;4911889;28;87335;-71
2022/09/13 07:18:27;;;;;;;2.17;1.65;;;38.10;38.90;;;;;;4912512;28;86582;-71
2022/09/13 07:21:05;;;;;;;3.22;1.58;;;36.80;40.80;;;;;;4911582;28;87134;-71
2022/09/13 07:23:32;;;;;;;4.43;3.15;;;36.70;40.90;;;;;;4916902;28;86911;-71
2022/09/13 07:26:03;;;;;;;3.78;2.17;;;37.30;39.90;;;;;;4913490;28;86843;-71
2022/09/13 07:28:31;;;;;;;5.22;3.45;;;38.30;38.80;;;;;;4918347;28;86738;-71
2022/09/13 07:31:06;;;;;;;4.80;2.80;;;38.80;38.10;;;;;;4912569;28;87217;-71
2022/09/13 07:33:31;;;;;;;4.55;3.17;;;38.80;37.80;;;;;;4916642;28;86386;-71
2022/09/13 07:36:00;;;;;;;2.78;2.55;;;38.60;39.10;;;;;;4914636;28;86656;-72
2022/09/13 07:38:25;;;;;;;;;;;40.40;37.30;;;;;;4917645;28;86517;-72
2022/09/13 07:40:58;;;;;;;2.72;1.83;;;41.30;35.20;;;;;;4914816;28;88248;-71
2022/09/13 07:43:24;;;;;;;3.60;3.30;;;41.70;36.20;;;;;;4914048;28;87417;-71
2022/09/13 07:46:02;;;;;;;7.10;5.15;;;42.10;35.60;;;;;;4912204;28;87885;-72
2022/09/13 07:48:29;;;;;;;3.70;2.70;;;41.50;35.80;;;;;;4906352;28;87094;-70
2022/09/13 07:50:59;;;;;;;3.72;3.33;;;41.50;35.50;;;;;;4914695;28;89482;-69
2022/09/13 07:53:24;;;;;;;3.28;1.95;;;41.90;35.50;;;;;;4914135;28;88581;-70
2022/09/13 07:55:51;;;;;;;4.45;3.92;;;42.40;34.40;;;;;;4906656;28;86785;-70
2022/09/13 07:58:17;;;;;;;5.68;4.45;;;43.00;34.60;;;;;;4913447;28;85648;-69
2022/09/13 08:00:43;;;;;;;4.90;4.20;;;43.30;34.20;;;;;;4914728;28;89149;-69
2022/09/13 08:03:10;;;;;;;4.18;3.88;;;44.30;33.10;;;;;;4913947;28;87190;-73
2022/09/13 08:05:39;;;;;;;5.43;4.90;;;44.30;32.20;;;;;;4914906;28;87547;-72
2022/09/13 08:08:06;;;;;;;5.55;4.35;;;42.70;33.70;;;;;;4917183;28;86952;-69
2022/09/13 08:10:32;;;;;;;5.50;4.70;;;41.30;31.40;;;;;;4915959;28;88731;-69
2022/09/13 08:12:58;;;;;;;4.28;3.67;;;39.20;35.60;;;;;;4911945;28;87041;-69
2022/09/13 08:15:24;;;;;;;4.13;3.72;;;39.20;35.00;;;;;;4915202;28;86844;-66
2022/09/13 08:17:51;;;;;;;3.53;3.15;;;39.50;34.50;;;;;;4918084;28;87009;-68
2022/09/13 08:20:17;;;;;;;3.65;2.85;;;38.60;36.00;;;;;;4904021;28;89200;-67
2022/09/13 08:22:42;;;;;;;3.70;3.40;;;40.20;35.80;;;;;;4908739;28;88139;-67
2022/09/13 08:25:08;;;;;;;5.38;4.00;;;42.50;34.90;;;;;;4912715;28;86787;-67
2022/09/13 08:27:34;;;;;;;5.10;4.63;;;43.40;33.30;;;;;;4914919;28;86355;-66
2022/09/13 08:29:59;;;;;;;4.82;4.43;;;44.70;32.50;;;;;;4907402;28;89881;-66
2022/09/13 08:32:25;;;;;;;5.43;4.93;;;43.50;34.00;;;;;;4914765;28;87102;-67
2022/09/13 08:34:51;;;;;;;5.80;5.20;;;43.30;33.70;;;;;;4903727;28;87331;-68
2022/09/13 08:37:17;;;;;;;3.90;3.17;;;44.80;33.30;;;;;;4910001;28;86373;-66
2022/09/13 08:39:43;;;;;;;6.35;5.47;;;45.70;32.20;;;;;;4912495;28;88622;-67
2022/09/13 08:42:22;;;;;;;5.82;5.22;;;44.40;33.80;;;;;;4917148;28;86744;-66
2022/09/13 08:44:53;;;;;;;6.72;5.57;;;45.70;32.50;;;;;;4909349;28;86629;-67
2022/09/13 08:47:40;;;;;;;6.97;6.32;;;47.00;31.60;;;;;;4912275;28;85824;-67
2022/09/13 08:50:14;;;;;;;7.43;6.70;;;46.20;32.70;;;;;;4914351;28;86785;-66
2022/09/13 08:52:55;;;;;;;4.72;3.10;;;45.80;32.10;;;;;;4910406;28;86921;-67
2022/09/13 08:56:01;;;;;;;6.30;5.85;;;45.40;32.90;;;;;;4916253;28;87179;-67
2022/09/13 08:58:33;;;;;;;5.72;5.22;;;46.50;31.80;;;;;;4895428;28;86468;-67
2022/09/13 09:01:21;;;;;;;6.82;6.13;;;47.30;31.10;;;;;;4914400;28;87808;-67
2022/09/13 09:04:07;;;;;;;8.02;6.47;;;47.40;31.30;;;;;;4916359;28;86764;-67
2022/09/13 09:06:35;;;;;;;8.70;8.00;;;47.40;31.00;;;;;;4914270;28;87015;-67
2022/09/13 09:09:06;;;;;;;8.05;7.13;;;43.90;34.70;;;;;;4913614;28;86551;-67
2022/09/13 09:11:55;;;;;;;7.18;6.68;;;45.10;33.60;;;;;;4913109;28;87314;-67
2022/09/13 09:14:34;;;;;;;8.13;7.50;;;46.40;32.60;;;;;;4908729;28;87298;-67
2022/09/13 09:17:03;;;;;;;5.82;5.35;;;46.80;31.50;;;;;;4914121;28;86637;-67
2022/09/13 09:19:52;;;;;;;7.72;7.13;;;46.10;32.70;;;;;;4909031;28;86451;-67
2022/09/13 09:22:23;;;;;;;7.95;7.35;;;45.60;32.60;;;;;;4913673;28;89637;-67
2022/09/13 09:24:54;;;;;;;8.52;7.72;;;47.30;31.30;;;;;;4911358;28;89683;-67
2022/09/13 09:27:20;;;;;;;9.00;8.23;;;49.00;30.50;;;;;;4912014;28;86389;-67
2022/09/13 09:29:53;;;;;;;8.88;7.78;;;49.00;30.70;;;;;;4910647;28;86934;-68
2022/09/13 09:32:46;;;;;;;9.00;8.20;;;48.10;30.60;;;;;;4911523;28;87896;-67
2022/09/13 09:36:08;;;;;;;7.13;6.43;;;46.70;32.60;;;;;;4909554;28;87011;-67
2022/09/13 09:38:41;;;;;;;8.93;8.02;;;46.20;33.20;;;;;;4813984;29;86806;-68
2022/09/13 09:41:26;;;;;;;7.80;7.10;;;47.20;32.20;;;;;;4814059;29;85685;-68
2022/09/13 09:43:57;;;;;;;9.13;8.20;;;48.70;30.80;;;;;;4876702;28;88005;-68
2022/09/13 09:46:28;;;;;;;9.73;8.85;;;47.90;30.90;;;;;;4905480;28;87235;-67
2022/09/13 09:49:03;;;;;;;9.30;8.48;;;45.60;32.30;;;;;;4907708;28;87642;-67
2022/09/13 09:51:30;;;;;;;8.52;7.40;;;46.00;31.70;;;;;;4909395;28;86306;-67
2022/09/13 09:54:04;;;;;;;8.95;8.15;;;46.20;31.40;;;;;;4908540;28;87228;-67
2022/09/13 09:56:32;;;;;;;5.07;4.45;;;46.70;30.30;;;;;;4911672;28;86804;-68
2022/09/13 09:58:58;;;;;;;8.90;8.13;;;47.50;30.10;;;;;;4907442;28;87033;-67
2022/09/13 10:01:27;;;;;;;8.40;7.63;;;45.60;32.10;;;;;;4909799;28;86762;-67
2022/09/13 10:04:26;;;;;;;8.02;7.28;;;45.60;31.30;;;;;;4911497;28;87247;-68
2022/09/13 10:07:17;;;;;;;6.55;5.97;;;41.90;34.80;;;;;;4866103;28;86983;-71
2022/09/13 10:10:19;;;;;;;6.95;6.28;;;41.90;33.60;;;;;;4913580;28;88013;-71
2022/09/13 10:12:50;;;;;;;7.10;6.50;;;43.30;33.50;;;;;;4913571;28;86751;-71
2022/09/13 10:15:19;;;;;;;7.18;6.57;;;44.70;32.10;;;;;;4910306;28;89138;-71
2022/09/13 10:18:05;;;;;;;7.47;6.88;;;44.50;31.00;;;;;;4908139;28;87862;-72
2022/09/13 10:20:32;;;;;;;6.10;5.38;;;43.30;31.50;;;;;;4906688;28;86768;-71
2022/09/13 10:23:12;;;;;;;5.32;4.82;;;41.30;33.50;;;;;;4914211;28;87936;-71
2022/09/13 10:25:39;;;;;;;5.63;5.03;;;39.80;34.80;;;;;;4911847;28;87210;-71
2022/09/13 10:28:11;;;;;;;6.03;5.43;;;37.60;37.30;;;;;;4916030;28;86969;-72
2022/09/13 10:30:47;;;;;;;5.65;4.03;;;35.40;40.90;;;;;;4906123;28;87299;-70
2022/09/13 10:33:32;;;;;;;4.10;3.70;;;33.90;43.10;;;;;;4908994;28;86081;-72
2022/09/13 10:36:26;;;;;;;3.72;3.42;;;32.60;44.70;;;;;;4906131;28;86726;-72
2022/09/13 10:39:16;;;;;;;3.67;2.88;;;31.10;45.60;;;;;;4908686;28;86940;-73
2022/09/13 10:41:47;;;;;;;3.42;1.58;;;30.50;47.80;;;;;;4915547;28;87933;-69
2022/09/13 10:44:27;;;;;;;2.83;2.15;;;30.00;46.70;;;;;;4915300;28;86684;-69
2022/09/13 10:46:54;;;;;;;2.25;1.75;;;29.50;47.00;;;;;;4907419;28;86693;-69
2022/09/13 10:49:39;;;;;;;4.63;1.73;;;29.00;49.90;;;;;;4910051;28;86899;-74
2022/09/13 10:52:35;;;;;;;2.53;1.63;;;28.10;51.60;;;;;;4913237;28;87195;-72
2022/09/13 10:55:18;;;;;;;4.28;1.38;;;27.90;51.70;;;;;;4914268;28;86527;-72
2022/09/13 10:57:52;;;;;;;2.63;1.73;;;28.00;50.30;;;;;;4912472;28;87550;-74
2022/09/13 11:00:24;;;;;;;2.33;0.85;;;27.70;52.90;;;;;;4914920;28;86939;-71
2022/09/13 11:02:53;;;;;;;1.50;1.05;;;27.70;50.40;;;;;;4916223;28;87299;-72
2022/09/13 11:05:25;;;;;;;2.92;1.27;;;27.60;50.40;;;;;;4915476;28;86790;-72
2022/09/13 11:07:54;;;;;;;2.13;1.10;;;27.30;51.10;;;;;;4913931;28;87577;-71
2022/09/13 11:10:41;;;;;;;1.60;1.05;;;27.10;52.70;;;;;;4914175;28;87820;-69
2022/09/13 11:13:13;;;;;;;2.17;0.93;;;27.00;54.10;;;;;;4911804;28;87020;-69
2022/09/13 11:16:03;;;;;;;2.30;1.27;;;26.80;54.60;;;;;;4916510;28;87663;-71
2022/09/13 11:18:46;;;;;;;2.65;1.50;;;27.10;52.50;;;;;;4916956;28;87627;-72
2022/09/13 11:21:26;;;;;;;3.08;1.30;;;27.10;55.60;;;;;;4914745;28;86406;-69
2022/09/13 11:24:11;;;;;;;2.28;1.15;;;27.20;55.30;;;;;;4915169;28;86294;-71
2022/09/13 11:27:01;;;;;;;3.15;1.13;;;27.10;55.20;;;;;;4918386;28;85508;-71
2022/09/13 11:29:41;;;;;;;3.05;1.70;;;27.00;54.20;;;;;;4911405;28;86747;-71
2022/09/13 11:32:10;;;;;;;4.30;1.05;;;27.30;55.00;;;;;;4908874;28;86877;-71
2022/09/13 11:35:11;;;;;;;2.67;1.38;;;27.20;57.30;;;;;;4917043;28;88036;-72
2022/09/13 11:37:46;;;;;;;2.58;0.95;;;27.20;55.20;;;;;;4837708;29;86478;-72
2022/09/13 11:40:12;;;;;;;5.20;1.67;;;27.20;56.70;;;;;;4903897;28;87280;-73
2022/09/13 11:42:50;;;;;;;3.53;1.00;;;27.00;57.10;;;;;;4915942;28;86732;-71
2022/09/13 11:45:21;;;;;;;2.72;1.83;;;27.00;57.70;;;;;;4915706;28;86932;-70
2022/09/13 11:48:11;;;;;;;2.22;1.35;;;27.00;57.00;;;;;;4914905;28;86878;-72
2022/09/13 11:50:39;;;;;;;5.35;1.38;;;26.90;58.90;;;;;;4912621;28;87306;-71
2022/09/13 11:53:17;;;;;;;6.88;1.27;;;27.00;55.80;;;;;;4915740;28;86968;-71
2022/09/13 11:55:56;;;;;;;1.85;0.73;;;27.20;56.70;;;;;;4918272;28;86404;-71
2022/09/13 11:58:51;;;;;;;3.63;1.35;;;27.30;56.70;;;;;;4914186;28;86189;-71
2022/09/13 12:01:26;;;;;;;4.35;1.58;;;27.30;57.90;;;;;;4911090;28;87553;-71
2022/09/13 12:04:05;;;;;;;5.32;1.65;;;27.20;57.30;;;;;;4914462;28;87087;-71
2022/09/13 12:06:35;;;;;;;3.45;0.75;;;27.20;57.30;;;;;;4914044;28;86977;-72
2022/09/13 12:09:19;;;;;;;2.13;1.60;;;27.40;55.90;;;;;;4911580;28;86291;-71
2022/09/13 12:12:09;;;;;;;2.92;1.40;;;27.60;55.80;;;;;;4915948;28;87844;-71
2022/09/13 12:14:57;;;;;;;3.13;1.58;;;27.50;56.00;;;;;;4911984;28;86598;-72
2022/09/13 12:17:33;;;;;;;1.95;1.23;;;27.50;57.00;;;;;;4913645;28;87176;-72
2022/09/13 12:20:02;;;;;;;3.10;1.23;;;27.30;58.00;;;;;;4912199;28;86363;-71
2022/09/13 12:22:33;;;;;;;1.77;1.40;;;27.00;58.90;;;;;;4914582;28;87057;-71
2022/09/13 12:25:04;;;;;;;3.72;1.73;;;26.80;60.10;;;;;;4914888;28;87043;-71
2022/09/13 12:27:42;;;;;;;5.95;1.88;;;26.50;61.10;;;;;;4913233;28;88416;-71
2022/09/13 12:30:27;;;;;;;4.80;1.48;;;26.30;60.40;;;;;;4912318;28;87061;-70
2022/09/13 12:32:53;;;;;;;1.02;0.57;;;26.30;61.00;;;;;;4914193;28;87387;-71
2022/09/13 12:35:33;;;;;;;3.03;1.45;;;26.10;60.80;;;;;;4910501;28;88123;-71
2022/09/13 12:38:07;;;;;;;5.32;1.40;;;26.20;62.50;;;;;;4915812;28;86959;-72
2022/09/13 12:41:08;;;;;;;4.07;1.48;;;26.40;61.20;;;;;;4917070;28;86318;-73
2022/09/13 12:43:55;;;;;;;2.45;0.80;;;26.70;60.40;;;;;;4907683;28;87047;-73
2022/09/13 12:46:50;;;;;;;4.35;1.52;;;26.90;59.10;;;;;;4914596;28;87016;-72
2022/09/13 12:49:34;;;;;;;;;;;26.80;60.10;;;;;;4900187;28;86382;-71
2022/09/13 12:52:22;;;;;;;1.35;0.70;;;26.80;59.20;;;;;;4917203;28;87112;-71
2022/09/13 12:55:09;;;;;;;4.30;1.17;;;26.90;59.80;;;;;;4915374;28;88003;-73
2022/09/13 12:58:01;;;;;;;2.78;1.08;;;27.00;60.90;;;;;;4915712;28;87101;-71
2022/09/13 13:00:32;;;;;;;6.53;1.25;;;27.00;59.80;;;;;;4916512;28;86421;-71
2022/09/13 13:02:58;;;;;;;2.45;1.25;;;27.10;59.20;;;;;;4915728;28;87021;-71
2022/09/13 13:05:54;;;;;;;4.07;1.65;;;27.20;58.90;;;;;;4917346;28;86778;-71
2022/09/13 13:08:19;;;;;;;3.00;1.27;;;26.80;60.10;;;;;;4911453;28;86676;-72
2022/09/13 13:11:00;;;;;;;5.82;1.52;;;26.80;60.50;;;;;;4913389;28;87202;-71
2022/09/13 13:13:32;;;;;;;7.95;1.23;;;26.30;60.80;;;;;;4914028;28;86011;-71
2022/09/13 13:16:02;;;;;;;2.22;0.85;;;26.40;61.60;;;;;;4913821;28;87528;-71
2022/09/13 13:18:49;;;;;;;3.25;1.10;;;26.60;61.90;;;;;;4913979;28;87137;-72
2022/09/13 13:21:26;;;;;;;2.45;1.10;;;26.80;62.40;;;;;;4916333;28;87177;-71
2022/09/13 13:24:13;;;;;;;3.55;1.08;;;26.90;60.90;;;;;;4914303;28;86896;-70
2022/09/13 13:26:43;;;;;;;2.85;1.15;;;27.10;61.30;;;;;;4910230;28;87232;-72
2022/09/13 13:29:17;;;;;;;2.90;1.33;;;27.10;60.60;;;;;;4907852;28;86717;-71
2022/09/13 13:32:09;;;;;;;1.73;1.10;;;27.10;61.60;;;;;;4912977;28;87105;-70
2022/09/13 13:34:48;;;;;;;2.13;0.73;;;27.40;60.70;;;;;;4914028;28;86576;-71
2022/09/13 13:37:13;;;;;;;1.73;0.93;;;27.70;57.40;;;;;;4918008;28;86961;-71
2022/09/13 13:39:47;;;;;;;3.65;1.50;;;27.90;56.90;;;;;;4916348;28;86180;-69
2022/09/13 13:42:24;;;;;;;3.45;1.40;;;28.00;56.60;;;;;;4918470;28;86295;-71
2022/09/13 13:44:58;;;;;;;6.97;1.08;;;28.20;56.60;;;;;;4918279;28;86294;-70
2022/09/13 13:47:27;;;;;;;1.73;0.50;;;28.30;55.70;;;;;;4916199;28;87914;-71
2022/09/13 13:50:10;;;;;;;2.03;1.10;;;28.20;56.30;;;;;;4917255;28;88217;-70
2022/09/13 13:52:55;;;;;;;3.95;1.40;;;28.40;54.80;;;;;;4917407;28;86297;-72
2022/09/13 13:55:45;;;;;;;1.50;1.05;;;28.70;54.50;;;;;;4919216;28;86689;-71
2022/09/13 13:58:41;;;;;;;1.02;0.77;;;28.90;51.30;;;;;;4917493;28;87754;-71
2022/09/13 14:01:18;;;;;;;1.77;1.20;;;29.10;51.50;;;;;;4914420;28;87394;-71
2022/09/13 14:03:55;;;;;;;2.13;0.82;;;29.30;50.70;;;;;;4918829;28;86953;-71
2022/09/13 14:06:47;;;;;;;3.35;0.77;;;29.20;51.80;;;;;;4919450;28;85590;-71
2022/09/13 14:09:37;;;;;;;3.35;1.20;;;29.40;51.60;;;;;;4919862;28;87611;-72
2022/09/13 14:12:35;;;;;;;2.50;1.33;;;29.40;50.60;;;;;;4912697;28;86619;-71
2022/09/13 14:15:31;;;;;;;1.65;1.20;;;29.20;52.90;;;;;;4914793;28;87683;-71
2022/09/13 14:18:19;;;;;;;3.58;1.55;;;29.30;52.10;;;;;;4912904;28;86571;-72
2022/09/13 14:21:22;;;;;;;3.03;0.93;;;29.00;54.40;;;;;;4915230;28;87305;-71
2022/09/13 14:23:49;;;;;;;3.25;1.58;;;28.90;53.80;;;;;;4916842;28;86373;-71
2022/09/13 14:26:14;;;;;;;4.47;0.98;;;28.80;54.70;;;;;;4913301;28;87824;-71
2022/09/13 14:28:40;;;;;;;3.92;1.40;;;28.80;53.80;;;;;;4914048;28;86178;-72
2022/09/13 14:31:06;;;;;;;3.47;1.33;;;29.10;53.60;;;;;;4912715;28;87715;-71
2022/09/13 14:33:35;;;;;;;2.58;1.13;;;29.10;50.90;;;;;;4908708;28;87102;-71
2022/09/13 14:36:05;;;;;;;2.78;1.05;;;29.10;51.80;;;;;;4913716;28;86330;-71
2022/09/13 14:38:34;;;;;;;1.15;0.43;;;28.90;53.30;;;;;;4911443;28;87733;-71
2022/09/13 14:41:13;;;;;;;1.95;1.17;;;28.90;51.60;;;;;;4916411;28;88436;-70
2022/09/13 14:43:39;;;;;;;3.60;1.00;;;28.80;50.50;;;;;;4910490;28;87748;-71
2022/09/13 14:46:30;;;;;;;3.75;1.67;;;28.90;49.40;;;;;;4908471;28;87013;-71
2022/09/13 14:49:00;;;;;;;3.50;1.10;;;28.80;50.00;;;;;;4912197;28;86292;-72
2022/09/13 14:51:30;;;;;;;3.67;1.40;;;28.80;50.50;;;;;;4908972;28;87334;-71
2022/09/13 14:54:08;;;;;;;3.55;1.35;;;28.70;54.00;;;;;;4912545;28;87137;-72
2022/09/13 14:56:51;;;;;;;4.25;1.25;;;28.80;56.60;;;;;;4911422;28;86295;-72
2022/09/13 14:59:30;;;;;;;1.83;1.30;;;28.50;58.20;;;;;;4911783;28;86317;-72
2022/09/13 15:01:57;;;;;;;2.47;1.40;;;28.20;59.70;;;;;;4909078;28;87209;-71
2022/09/13 15:04:23;;;;;;;2.28;1.13;;;27.90;61.20;;;;;;4916192;28;86669;-72
2022/09/13 15:07:27;;;;;;;4.10;1.00;;;27.70;63.20;;;;;;4912101;28;87635;-71
2022/09/13 15:10:05;;;;;;;1.92;1.08;;;27.80;60.20;;;;;;4901619;28;87436;-72
2022/09/13 15:12:30;;;;;;;2.42;0.85;;;27.60;59.10;;;;;;4914267;28;87296;-70
2022/09/13 15:15:22;;;;;;;4.25;1.50;;;27.30;62.10;;;;;;4912363;28;87419;-71
2022/09/13 15:17:53;;;;;;;5.90;1.45;;;27.10;62.40;;;;;;4909597;28;86890;-71
2022/09/13 15:20:21;;;;;;;4.88;1.77;;;26.90;62.20;;;;;;4914237;28;88254;-71
2022/09/13 15:22:49;;;;;;;1.95;1.00;;;26.70;63.60;;;;;;4915224;28;87028;-72
2022/09/13 15:25:27;;;;;;;2.70;1.23;;;26.70;64.60;;;;;;4911838;28;87059;-71
2022/09/13 15:27:56;;;;;;;2.50;0.98;;;26.60;64.90;;;;;;4913203;28;86955;-71
2022/09/13 15:30:24;;;;;;;4.70;0.82;;;26.80;63.70;;;;;;4911842;28;86484;-72
2022/09/13 15:33:09;;;;;;;2.92;1.48;;;26.80;64.70;;;;;;4914421;28;88718;-73
2022/09/13 15:35:37;;;;;;;2.85;0.73;;;26.70;65.70;;;;;;4909118;28;88021;-70
2022/09/13 15:38:27;;;;;;;2.25;1.08;;;26.60;64.00;;;;;;4913038;28;88082;-71
2022/09/13 15:41:17;;;;;;;5.68;1.13;;;26.70;63.40;;;;;;4914724;28;86819;-72
2022/09/13 15:43:43;;;;;;;4.60;0.90;;;26.80;62.80;;;;;;4910211;28;86569;-72
2022/09/13 15:46:14;;;;;;;1.92;1.27;;;26.60;62.90;;;;;;4912904;28;87030;-71
2022/09/13 15:48:49;;;;;;;6.40;1.17;;;26.60;62.60;;;;;;4916619;28;86554;-71
2022/09/13 15:51:15;;;;;;;2.10;0.95;;;26.60;62.40;;;;;;4915228;28;86246;-73
2022/09/13 15:53:44;;;;;;;2.70;0.95;;;26.60;61.40;;;;;;4915607;28;87826;-71
2022/09/13 15:56:17;;;;;;;4.88;1.52;;;26.50;62.50;;;;;;4915406;28;88073;-71
2022/09/13 15:58:43;;;;;;;1.77;1.20;;;26.60;62.30;;;;;;4913912;28;87875;-72
2022/09/13 16:01:11;;;;;;;1.50;0.85;;;26.60;61.90;;;;;;4915079;28;86976;-71
2022/09/13 16:03:37;;;;;;;1.90;1.27;;;26.60;59.40;;;;;;4914852;28;87234;-72
2022/09/13 16:06:06;;;;;;;1.35;0.80;;;26.50;59.20;;;;;;4912819;28;86978;-72
2022/09/13 16:08:31;;;;;;;4.40;0.68;;;26.10;60.00;;;;;;4910872;28;86237;-71
2022/09/13 16:10:57;;;;;;;1.42;0.63;;;25.50;61.90;;;;;;4915012;28;86323;-70